Time;durP1;ratioP1;P1;durP2;ratioP2;P2;SDS_P1;SDS_P2;PMS_P1;PMS_P2;Temp;Humidity;BMP_temperature;BMP_pressure;BME280_temperature;BME280_humidity;BME280_pressure;Samples;Min_cycle;Max_cycle;Signal;HPM_P1;HPM_P2
2024/01/25 00:00:20;;;;;;;;;;;7.00;99.90;;;;;;5116707;28;19919;-89
2024/01/25 00:02:45;;;;;;;;;;;7.00;99.90;;;;;;5118958;28;19932;-88
2024/01/25 00:05:11;;;;;;;;;;;7.00;99.90;;;;;;5108506;28;19910;-88
2024/01/25 00:07:44;;;;;;;;;;;7.00;99.90;;;;;;5119308;28;19904;-87
2024/01/25 00:10:10;;;;;;;;;;;6.90;99.90;;;;;;5116750;28;19931;-89
2024/01/25 00:12:36;;;;;;;;;;;6.80;99.90;;;;;;5102112;28;19903;-89
2024/01/25 00:15:01;;;;;;;;;;;6.80;99.90;;;;;;5107561;28;19904;-88
2024/01/25 00:17:27;;;;;;;;;;;6.70;99.90;;;;;;5109088;28;19908;-88
2024/01/25 00:19:52;;;;;;;;;;;6.70;99.90;;;;;;5111804;28;20004;-88
2024/01/25 00:22:18;;;;;;;;;;;6.70;99.90;;;;;;5111236;28;19939;-89
2024/01/25 00:24:43;;;;;;;;;;;6.60;99.90;;;;;;5104445;28;19903;-88
2024/01/25 00:27:09;;;;;;;;;;;6.60;99.90;;;;;;5103823;28;19910;-90
2024/01/25 00:29:36;;;;;;;;;;;6.50;99.90;;;;;;5110559;28;19963;-89
2024/01/25 00:32:02;;;;;;;;;;;6.50;99.90;;;;;;5118886;28;19903;-90
2024/01/25 00:34:28;;;;;;;;;;;6.50;99.90;;;;;;5108078;28;19911;-90
2024/01/25 00:36:54;;;;;;;;;;;6.40;99.90;;;;;;5113317;27;19905;-91
2024/01/25 00:39:19;;;;;;;;;;;6.40;99.90;;;;;;5103414;28;19912;-91
2024/01/25 00:41:48;;;;;;;;;;;6.30;99.90;;;;;;5117261;28;19904;-88
2024/01/25 00:44:13;;;;;;;;;;;6.30;99.90;;;;;;5114984;28;19929;-87
2024/01/25 00:46:39;;;;;;;;;;;6.20;99.90;;;;;;5115010;27;20379;-88
2024/01/25 00:49:05;;;;;;;;;;;6.10;99.90;;;;;;5114830;28;19999;-89
2024/01/25 00:51:30;;;;;;;;;;;6.10;99.90;;;;;;5101866;28;19904;-92
2024/01/25 00:53:56;;;;;;;;;;;6.00;99.90;;;;;;5106074;28;19975;-91
2024/01/25 00:56:21;;;;;;;;;;;6.00;99.90;;;;;;5115556;28;19923;-91
2024/01/25 00:58:48;;;;;;;;;;;5.90;99.90;;;;;;5104298;28;19908;-90
2024/01/25 01:01:13;;;;;;;;;;;5.90;99.90;;;;;;5107913;28;19907;-89
2024/01/25 01:03:39;;;;;;;;;;;5.80;99.90;;;;;;5114058;28;19908;-90
2024/01/25 01:06:05;;;;;;;;;;;5.80;99.90;;;;;;5115808;28;19904;-90
2024/01/25 01:08:31;;;;;;;;;;;5.70;99.90;;;;;;5114403;28;19929;-91
2024/01/25 01:10:56;;;;;;;;;;;5.70;99.90;;;;;;5108948;28;20320;-90
2024/01/25 01:13:22;;;;;;;;;;;5.70;99.90;;;;;;5116831;28;19911;-90
2024/01/25 01:15:47;;;;;;;;;;;5.70;99.90;;;;;;5116756;28;19938;-90
2024/01/25 01:18:13;;;;;;;;;;;5.60;99.90;;;;;;5101609;28;19951;-89
2024/01/25 01:20:38;;;;;;;;;;;5.60;99.90;;;;;;5106534;28;19946;-90
2024/01/25 01:23:04;;;;;;;;;;;5.60;99.90;;;;;;5103626;28;19963;-90
2024/01/25 01:25:29;;;;;;;;;;;5.60;99.90;;;;;;5117259;28;20002;-91
2024/01/25 01:27:55;;;;;;;;;;;5.70;99.90;;;;;;5113334;28;19908;-88
2024/01/25 01:30:22;;;;;;;;;;;5.70;99.90;;;;;;5097689;28;19904;-88
2024/01/25 01:32:47;;;;;;;;;;;5.80;99.90;;;;;;5104023;28;19957;-90
2024/01/25 01:35:13;;;;;;;;;;;5.90;99.90;;;;;;5102501;28;19904;-90
2024/01/25 01:37:38;;;;;;;;;;;5.90;99.90;;;;;;5108185;28;19904;-89
2024/01/25 01:40:04;;;;;;;;;;;6.00;99.90;;;;;;5121647;28;19914;-90
2024/01/25 01:42:31;;;;;;;;;;;6.00;99.90;;;;;;5115586;28;19912;-88
2024/01/25 01:44:56;;;;;;;;;;;6.00;99.90;;;;;;5114211;28;20296;-89
2024/01/25 01:47:22;;;;;;;;;;;6.00;99.90;;;;;;5122209;27;20011;-89
2024/01/25 01:49:48;;;;;;;;;;;6.00;99.90;;;;;;5101976;28;19993;-91
2024/01/25 01:52:13;;;;;;;;;;;6.00;99.90;;;;;;5110007;28;19947;-91
2024/01/25 01:54:40;;;;;;;;;;;6.10;99.90;;;;;;5099988;28;19931;-90
2024/01/25 01:57:06;;;;;;;;;;;6.20;99.90;;;;;;5106763;28;20002;-90
2024/01/25 01:59:32;;;;;;;;;;;6.20;99.90;;;;;;5102955;28;19937;-90
2024/01/25 02:01:58;;;;;;;;;;;6.20;99.90;;;;;;5102379;28;20019;-89
2024/01/25 02:04:23;;;;;;;;;;;6.30;99.90;;;;;;5106218;28;19904;-89
2024/01/25 02:06:49;;;;;;;;;;;6.30;99.90;;;;;;5106190;28;19908;-89
2024/01/25 02:09:14;;;;;;;;;;;6.40;99.90;;;;;;5114390;28;19908;-89
2024/01/25 02:11:40;;;;;;;;;;;6.40;99.90;;;;;;5113406;28;20372;-90
2024/01/25 02:14:10;;;;;;;;;;;6.50;99.90;;;;;;5114733;28;19907;-89
2024/01/25 02:16:35;;;;;;;;;;;6.60;99.90;;;;;;5105106;28;19903;-91
2024/01/25 02:19:01;;;;;;;;;;;6.60;99.90;;;;;;5106983;28;19907;-92
2024/01/25 02:21:27;;;;;;;;;;;6.60;99.90;;;;;;5112532;28;19986;-90
2024/01/25 02:23:52;;;;;;;;;;;6.70;99.90;;;;;;5100192;28;20287;-91
2024/01/25 02:26:18;;;;;;;;;;;6.60;99.90;;;;;;5101421;28;20299;-90
2024/01/25 02:28:43;;;;;;;;;;;6.60;99.90;;;;;;5117924;28;19903;-89
2024/01/25 02:31:09;;;;;;;;;;;6.70;99.90;;;;;;5108090;28;19912;-88
2024/01/25 02:33:34;;;;;;;;;;;6.70;99.90;;;;;;5098383;28;20285;-88
2024/01/25 02:36:00;;;;;;;;;;;6.70;99.90;;;;;;5110724;28;19903;-88
2024/01/25 02:38:25;;;;;;;;;;;6.70;99.90;;;;;;5104743;28;19928;-90
2024/01/25 02:40:53;;;;;;;;;;;6.80;99.90;;;;;;5100193;28;20471;-90
2024/01/25 02:43:19;;;;;;;;;;;6.70;99.90;;;;;;5099750;28;19954;-88
2024/01/25 02:45:44;;;;;;;;;;;6.80;99.90;;;;;;5115851;28;19912;-87
2024/01/25 02:48:10;;;;;;;;;;;6.80;99.90;;;;;;5114620;28;19954;-87
2024/01/25 02:50:35;;;;;;;;;;;6.90;99.90;;;;;;5105671;28;19913;-88
2024/01/25 02:53:01;;;;;;;;;;;6.90;99.90;;;;;;5120853;28;20454;-90
2024/01/25 02:55:27;;;;;;;;;;;7.00;99.90;;;;;;5122486;28;19908;-92
2024/01/25 02:57:53;;;;;;;;;;;7.00;99.90;;;;;;5109061;28;19912;-92
2024/01/25 03:00:18;;;;;;;;;;;7.00;99.90;;;;;;5121940;28;19908;-89
2024/01/25 03:02:44;;;;;;;;;;;7.00;99.90;;;;;;5121347;28;19903;-91
2024/01/25 03:05:10;;;;;;;;;;;7.00;99.90;;;;;;5109315;28;19930;-90
2024/01/25 03:07:35;;;;;;;;;;;7.00;99.90;;;;;;5102188;28;20429;-90
2024/01/25 03:10:01;;;;;;;;;;;7.10;99.90;;;;;;5113962;28;19904;-91
2024/01/25 03:12:26;;;;;;;;;;;7.10;99.90;;;;;;5102719;28;19972;-88
2024/01/25 03:14:52;;;;;;;;;;;7.10;99.90;;;;;;5113406;28;19912;-89
2024/01/25 03:17:17;;;;;;;;;;;7.10;99.90;;;;;;5117133;28;20261;-87
2024/01/25 03:19:43;;;;;;;;;;;7.20;99.90;;;;;;5116023;28;20264;-88
2024/01/25 03:22:08;;;;;;;;;;;7.20;99.90;;;;;;5108724;28;19950;-89
2024/01/25 03:24:37;;;;;;;;;;;7.20;99.90;;;;;;5113890;28;19912;-87
2024/01/25 03:27:02;;;;;;;;;;;7.20;99.90;;;;;;5121215;28;19991;-86
2024/01/25 03:29:28;;;;;;;;;;;7.30;99.90;;;;;;5117319;27;19943;-89
2024/01/25 03:31:53;;;;;;;;;;;7.40;99.90;;;;;;5101020;28;19911;-89
2024/01/25 03:34:19;;;;;;;;;;;7.70;99.90;;;;;;5106615;28;19933;-89
2024/01/25 03:36:44;;;;;;;;;;;7.80;99.90;;;;;;5105892;28;20257;-87
2024/01/25 03:39:10;;;;;;;;;;;8.00;99.90;;;;;;5110415;27;20268;-88
2024/01/25 03:41:35;;;;;;;;;;;8.10;99.90;;;;;;5118830;28;20351;-89
2024/01/25 03:44:01;;;;;;;;;;;8.10;99.90;;;;;;5117385;28;19919;-87
2024/01/25 03:46:26;;;;;;;;;;;8.10;99.90;;;;;;5101390;28;19908;-87
2024/01/25 03:48:54;;;;;;;;;;;8.10;99.90;;;;;;5103260;28;19972;-88
2024/01/25 03:51:20;;;;;;;;;;;8.00;99.90;;;;;;5104900;28;19950;-87
2024/01/25 03:53:45;;;;;;;;;;;8.00;99.90;;;;;;5117156;28;20287;-89
2024/01/25 03:56:13;;;;;;;;;;;8.00;99.90;;;;;;5105963;28;20422;-91
2024/01/25 03:58:39;;;;;;;;;;;8.20;99.90;;;;;;5103355;28;19936;-92
2024/01/25 04:01:05;;;;;;;;;;;8.10;99.90;;;;;;5116758;28;19904;-91
2024/01/25 04:03:31;;;;;;;;;;;8.10;99.90;;;;;;5116305;28;19922;-89
2024/01/25 04:05:56;;;;;;;;;;;8.10;99.90;;;;;;5106270;28;19994;-90
2024/01/25 04:08:22;;;;;;;;;;;8.10;99.90;;;;;;5107093;28;19911;-90
2024/01/25 04:10:47;;;;;;;;;;;8.10;99.90;;;;;;5119461;28;19904;-87
2024/01/25 04:13:13;;;;;;;;;;;8.00;99.90;;;;;;5119251;28;20086;-88
2024/01/25 04:15:38;;;;;;;;;;;8.00;99.90;;;;;;5114643;28;19905;-88
2024/01/25 04:18:04;;;;;;;;;;;8.00;99.90;;;;;;5111936;28;19903;-88
2024/01/25 04:20:31;;;;;;;;;;;8.00;99.90;;;;;;5108060;28;19919;-92
2024/01/25 04:22:56;;;;;;;;;;;8.00;99.90;;;;;;5115089;28;19998;-90
2024/01/25 04:25:22;;;;;;;;;;;8.00;99.90;;;;;;5104097;28;19943;-90
2024/01/25 04:27:47;;;;;;;;;;;8.00;99.90;;;;;;5110040;28;19904;-88
2024/01/25 04:30:13;;;;;;;;;;;8.00;99.90;;;;;;5109048;28;19908;-89
2024/01/25 04:32:40;;;;;;;;;;;7.90;99.90;;;;;;5116290;28;20052;-88
2024/01/25 04:35:05;;;;;;;;;;;7.90;99.90;;;;;;5118203;28;20017;-87
2024/01/25 04:37:31;;;;;;;;;;;7.90;99.90;;;;;;5116934;28;19939;-85
2024/01/25 04:39:56;;;;;;;;;;;7.90;99.90;;;;;;5118387;28;19948;-86
2024/01/25 04:42:22;;;;;;;;;;;7.90;99.90;;;;;;5117040;28;19907;-87
2024/01/25 04:44:47;;;;;;;;;;;7.90;99.90;;;;;;5112954;28;20006;-86
2024/01/25 04:47:13;;;;;;;;;;;7.90;99.90;;;;;;5104514;28;19912;-86
2024/01/25 04:49:40;;;;;;;;;;;7.90;99.90;;;;;;5118770;28;19905;-86
2024/01/25 04:52:05;;;;;;;;;;;7.90;99.90;;;;;;5108438;28;20356;-87
2024/01/25 04:54:31;;;;;;;;;;;7.90;99.90;;;;;;5118971;28;20358;-86
2024/01/25 04:56:56;;;;;;;;;;;7.90;99.90;;;;;;5107704;28;19920;-86
2024/01/25 04:59:22;;;;;;;;;;;8.00;99.90;;;;;;5117661;28;19912;-85
2024/01/25 05:01:47;;;;;;;;;;;8.00;99.90;;;;;;5109255;28;20029;-85
2024/01/25 05:04:13;;;;;;;;;;;8.00;99.90;;;;;;5109057;28;19940;-84
2024/01/25 05:06:38;;;;;;;;;;;8.10;99.90;;;;;;5116709;28;19911;-84
2024/01/25 05:09:04;;;;;;;;;;;8.10;99.90;;;;;;5115628;28;19933;-84
2024/01/25 05:11:29;;;;;;;;;;;8.10;99.90;;;;;;5118038;28;19911;-85
2024/01/25 05:13:55;;;;;;;;;;;8.10;99.90;;;;;;5117459;28;19990;-86
2024/01/25 05:16:20;;;;;;;;;;;8.10;99.90;;;;;;5112875;28;20003;-84
2024/01/25 05:18:46;;;;;;;;;;;8.10;99.90;;;;;;5112361;28;19919;-85
2024/01/25 05:21:12;;;;;;;;;;;8.20;99.90;;;;;;5116151;28;19908;-83
2024/01/25 05:23:37;;;;;;;;;;;8.20;99.90;;;;;;5117573;28;19914;-84
2024/01/25 05:26:03;;;;;;;;;;;8.20;99.90;;;;;;5115899;28;19910;-84
2024/01/25 05:28:28;;;;;;;;;;;8.20;99.90;;;;;;5117463;28;19904;-84
2024/01/25 05:30:54;;;;;;;;;;;8.20;99.90;;;;;;5117156;28;20433;-83
2024/01/25 05:33:19;;;;;;;;;;;8.30;99.90;;;;;;5117488;28;19953;-83
2024/01/25 05:35:45;;;;;;;;;;;8.30;99.90;;;;;;5117123;28;20002;-83
2024/01/25 05:38:10;;;;;;;;;;;8.30;99.90;;;;;;5115903;28;20002;-83
2024/01/25 05:40:36;;;;;;;;;;;8.30;99.90;;;;;;5116673;28;20436;-84
2024/01/25 05:43:01;;;;;;;;;;;8.30;99.90;;;;;;5117235;28;19998;-83
2024/01/25 05:45:27;;;;;;;;;;;8.30;99.90;;;;;;5116895;28;19912;-83
2024/01/25 05:47:52;;;;;;;;;;;8.20;99.90;;;;;;5117126;28;19986;-83
2024/01/25 05:50:18;;;;;;;;;;;8.30;99.90;;;;;;5116717;28;19995;-82
2024/01/25 05:52:43;;;;;;;;;;;8.20;99.90;;;;;;5115214;28;20033;-83
2024/01/25 05:55:09;;;;;;;;;;;8.20;99.90;;;;;;5116962;28;19999;-84
2024/01/25 05:57:35;;;;;;;;;;;8.20;99.90;;;;;;5116982;28;19915;-81
2024/01/25 06:00:01;;;;;;;;;;;8.30;99.90;;;;;;5114423;28;19980;-82
2024/01/25 06:02:26;;;;;;;;;;;8.30;99.90;;;;;;5112615;28;19953;-82
2024/01/25 06:04:52;;;;;;;;;;;8.20;99.90;;;;;;5116553;28;19907;-81
2024/01/25 06:07:17;;;;;;;;;;;8.20;99.90;;;;;;5116542;28;19910;-81
2024/01/25 06:09:43;;;;;;;;;;;8.30;99.90;;;;;;5114981;28;19904;-83
2024/01/25 06:12:08;;;;;;;;;;;8.20;99.90;;;;;;5116536;28;20018;-83
2024/01/25 06:14:34;;;;;;;;;;;8.20;99.90;;;;;;5107188;28;19904;-82
2024/01/25 06:16:59;;;;;;;;;;;8.20;99.90;;;;;;5116814;28;19907;-82
2024/01/25 06:19:25;;;;;;;;;;;8.20;99.90;;;;;;5104203;28;19942;-83
2024/01/25 06:21:50;;;;;;;;;;;8.20;99.90;;;;;;5116387;28;20302;-82
2024/01/25 06:24:16;;;;;;;;;;;8.20;99.90;;;;;;5116564;28;20002;-84
2024/01/25 06:26:41;;;;;;;;;;;8.20;99.90;;;;;;5115059;28;19991;-82
2024/01/25 06:29:07;;;;;;;;;;;8.20;99.90;;;;;;5116511;28;20006;-83
2024/01/25 06:31:32;;;;;;;;;;;8.20;99.90;;;;;;5114999;28;20276;-82
2024/01/25 06:33:58;;;;;;;;;;;8.20;99.90;;;;;;5105655;28;19969;-83
2024/01/25 06:36:24;;;;;;;;;;;8.10;99.90;;;;;;5116666;28;20137;-84
2024/01/25 06:38:49;;;;;;;;;;;8.20;99.90;;;;;;5116632;28;20229;-83
2024/01/25 06:41:16;;;;;;;;;;;8.10;99.90;;;;;;5116433;28;19987;-84
2024/01/25 06:43:41;;;;;;;;;;;8.10;99.90;;;;;;5114876;28;19911;-84
2024/01/25 06:46:07;;;;;;;;;;;8.10;99.90;;;;;;5116133;28;19908;-84
2024/01/25 06:48:33;;;;;;;;;;;8.10;99.90;;;;;;5116167;28;19916;-83
2024/01/25 06:50:58;;;;;;;;;;;8.10;99.90;;;;;;5114567;28;20294;-82
2024/01/25 06:53:24;;;;;;;;;;;8.00;99.90;;;;;;5115854;28;19914;-82
2024/01/25 06:55:49;;;;;;;;;;;8.00;99.90;;;;;;5115762;28;19920;-83
2024/01/25 06:58:15;;;;;;;;;;;8.00;99.90;;;;;;5116240;28;19977;-83
2024/01/25 07:00:42;;;;;;;;;;;8.00;99.90;;;;;;5115542;28;19908;-82
2024/01/25 07:03:08;;;;;;;;;;;7.90;99.90;;;;;;5102733;28;19904;-81
2024/01/25 07:05:35;;;;;;;;;;;7.90;99.90;;;;;;5115935;28;19947;-82
2024/01/25 07:08:01;;;;;;;;;;;7.90;99.90;;;;;;5115784;28;19908;-82
2024/01/25 07:10:26;;;;;;;;;;;7.90;99.90;;;;;;5114183;28;19939;-82
2024/01/25 07:12:53;;;;;;;;;;;7.80;99.90;;;;;;5116623;28;19908;-82
2024/01/25 07:15:19;;;;;;;;;;;7.80;99.90;;;;;;5103167;28;19983;-84
2024/01/25 07:17:44;;;;;;;;;;;7.80;99.90;;;;;;5116068;28;19996;-83
2024/01/25 07:20:10;;;;;;;;;;;7.80;99.90;;;;;;5111925;28;19912;-82
2024/01/25 07:22:36;;;;;;;;;;;7.80;99.90;;;;;;5108905;28;20360;-75
2024/01/25 07:25:02;;;;;;;;;;;7.70;99.90;;;;;;5115343;28;19911;-76
2024/01/25 07:27:27;;;;;;;;;;;7.70;99.90;;;;;;5114461;28;19910;-76
2024/01/25 07:29:53;;;;;;;;;;;7.70;99.90;;;;;;5099998;28;20399;-76
2024/01/25 07:32:19;;;;;;;;;;;7.60;99.90;;;;;;5101514;28;19967;-76
2024/01/25 07:34:45;;;;;;;;;;;7.60;99.90;;;;;;5108338;28;19908;-76
2024/01/25 07:37:11;;;;;;;;;;;7.50;99.90;;;;;;5102814;28;19912;-76
2024/01/25 07:39:37;;;;;;;;;;;7.50;99.90;;;;;;5114473;28;20002;-76
2024/01/25 07:42:02;;;;;;;;;;;7.30;99.90;;;;;;5114666;28;20360;-76
2024/01/25 07:44:28;;;;;;;;;;;7.30;99.90;;;;;;5105407;28;19908;-76
2024/01/25 07:46:54;;;;;;;;;;;7.30;99.90;;;;;;5114985;28;19907;-75
2024/01/25 07:49:19;;;;;;;;;;;7.40;99.90;;;;;;5114540;28;19912;-76
2024/01/25 07:51:45;;;;;;;;;;;7.40;99.90;;;;;;5111928;28;19953;-76
2024/01/25 07:54:10;;;;;;;;;;;7.40;99.90;;;;;;5100755;27;19903;-76
2024/01/25 07:56:36;;;;;;;;;;;7.40;99.90;;;;;;5114657;28;20016;-76
2024/01/25 07:59:01;;;;;;;;;;;7.50;99.90;;;;;;5095553;28;19916;-76
2024/01/25 08:01:27;;;;;;;;;;;7.50;99.90;;;;;;5103192;28;19973;-76
2024/01/25 08:03:52;;;;;;;;;;;7.50;99.90;;;;;;5109472;28;19914;-76
2024/01/25 08:06:18;;;;;;;;;;;7.60;99.90;;;;;;5103297;28;19908;-76
2024/01/25 08:08:43;;;;;;;;;;;7.60;99.90;;;;;;5109562;28;20007;-76
2024/01/25 08:11:09;;;;;;;;;;;7.70;99.90;;;;;;5114122;28;19911;-76
2024/01/25 08:13:35;;;;;;;;;;;7.80;99.90;;;;;;5114358;28;20760;-76
2024/01/25 08:16:00;;;;;;;;;;;7.90;99.90;;;;;;5104290;28;19908;-76
2024/01/25 08:18:29;;;;;;;;;;;7.90;99.90;;;;;;5099242;28;20970;-76
2024/01/25 08:20:54;;;;;;;;;;;8.00;99.90;;;;;;5105466;28;20034;-76
2024/01/25 08:23:20;;;;;;;;;;;8.00;99.90;;;;;;5101833;28;20019;-76
2024/01/25 08:25:45;;;;;;;;;;;8.00;99.90;;;;;;5104959;28;19908;-76
2024/01/25 08:28:11;;;;;;;;;;;8.00;99.90;;;;;;5096215;28;19911;-76
2024/01/25 08:30:37;;;;;;;;;;;8.10;99.90;;;;;;5111986;28;19911;-76
2024/01/25 08:33:03;;;;;;;;;;;8.10;99.90;;;;;;5102003;28;19916;-76
2024/01/25 08:35:30;;;;;;;;;;;8.10;99.90;;;;;;5090039;28;19907;-76
2024/01/25 08:37:55;;;;;;;;;;;8.10;99.90;;;;;;5109600;28;20161;-77
2024/01/25 08:40:21;;;;;;;;;;;8.10;99.90;;;;;;5108277;28;19923;-76
2024/01/25 08:42:47;;;;;;;;;;;8.10;99.90;;;;;;5108948;28;19915;-76
2024/01/25 08:45:12;;;;;;;;;;;8.10;99.90;;;;;;5109808;28;19960;-76
2024/01/25 08:47:38;;;;;;;;;;;8.20;99.90;;;;;;5107395;28;19911;-76
2024/01/25 08:50:05;;;;;;;;;;;8.20;99.90;;;;;;5108506;28;19977;-76
2024/01/25 08:52:31;;;;;;;;;;;8.20;99.90;;;;;;5106761;28;19907;-76
2024/01/25 08:54:56;;;;;;;;;;;8.10;99.90;;;;;;5111009;28;19994;-76
2024/01/25 08:57:22;;;;;;;;;;;8.20;99.90;;;;;;5104559;28;19927;-76
2024/01/25 08:59:47;;;;;;;;;;;8.30;99.90;;;;;;5106309;28;19916;-77
2024/01/25 09:02:13;;;;;;;;;;;8.30;99.90;;;;;;5111004;28;19907;-76
2024/01/25 09:04:41;;;;;;;;;;;8.30;99.90;;;;;;5108027;28;19911;-76
2024/01/25 09:07:06;;;;;;;;;;;8.40;99.90;;;;;;5105542;28;20272;-76
2024/01/25 09:09:32;;;;;;;;;;;8.40;99.90;;;;;;5113673;28;19993;-76
2024/01/25 09:11:57;;;;;;;;;;;8.40;99.90;;;;;;5110871;28;19994;-76
2024/01/25 09:14:23;;;;;;;;;;;8.40;99.90;;;;;;5110354;28;19910;-76
2024/01/25 09:16:49;;;;;;;;;;;8.40;99.90;;;;;;5112202;28;19946;-76
2024/01/25 09:19:14;;;;;;;;;;;8.30;99.90;;;;;;5109084;28;19916;-76
2024/01/25 09:21:40;;;;;;;;;;;8.40;99.90;;;;;;5111080;28;19912;-76
2024/01/25 09:24:06;;;;;;;;;;;8.50;99.90;;;;;;5109877;28;19912;-76
2024/01/25 09:26:32;;;;;;;;;;;8.50;99.90;;;;;;5098848;27;20428;-76
2024/01/25 09:28:57;;;;;;;;;;;8.60;99.90;;;;;;5113217;28;20396;-76
2024/01/25 09:31:23;;;;;;;;;;;8.70;99.90;;;;;;5107679;28;19904;-75
2024/01/25 09:33:48;;;;;;;;;;;8.70;99.90;;;;;;5110761;28;20041;-77
2024/01/25 09:36:16;;;;;;;;;;;8.80;99.90;;;;;;5109296;28;19912;-76
2024/01/25 09:38:41;;;;;;;;;;;8.90;99.90;;;;;;5109006;28;19912;-76
2024/01/25 09:41:07;;;;;;;;;;;9.00;99.90;;;;;;5112923;28;20383;-77
2024/01/25 09:43:33;;;;;;;;;;;9.00;99.90;;;;;;5109121;28;19911;-76
2024/01/25 09:45:59;;;;;;;;;;;9.00;99.90;;;;;;5113790;28;19939;-76
2024/01/25 09:48:26;;;;;;;;;;;9.10;99.90;;;;;;5114248;28;19908;-76
2024/01/25 09:50:54;;;;;;;;;;;9.10;99.90;;;;;;5112775;28;20454;-76
2024/01/25 09:53:23;;;;;;;;;;;9.00;99.90;;;;;;5114950;28;19915;-75
2024/01/25 09:55:54;;;;;;;;;;;9.00;99.90;;;;;;5112421;28;19978;-76
2024/01/25 09:58:20;;;;;;;;;;;9.10;99.90;;;;;;5111724;28;19934;-76
2024/01/25 10:00:45;;;;;;;;;;;9.00;99.90;;;;;;5108578;28;19912;-76
2024/01/25 10:03:11;;;;;;;;;;;9.10;99.90;;;;;;5115713;28;20767;-75
2024/01/25 10:05:36;;;;;;;;;;;9.20;99.90;;;;;;5111257;28;19910;-75
2024/01/25 10:08:02;;;;;;;;;;;9.30;99.90;;;;;;5113601;28;19908;-75
2024/01/25 10:10:31;;;;;;;;;;;9.30;99.90;;;;;;5105576;28;19949;-75
2024/01/25 10:12:57;;;;;;;;;;;9.40;99.90;;;;;;5110384;28;19997;-76
2024/01/25 10:15:24;;;;;;;;;;;9.30;99.90;;;;;;5107338;28;20393;-75
2024/01/25 10:17:49;;;;;;;;;;;9.40;99.90;;;;;;5109256;28;19959;-75
2024/01/25 10:20:15;;;;;;;;;;;9.40;99.90;;;;;;5114543;28;19908;-75
2024/01/25 10:22:41;;;;;;;;;;;9.50;99.90;;;;;;5111859;28;19907;-75
2024/01/25 10:25:16;;;;;;;;;;;9.50;99.90;;;;;;5109776;28;19915;-75
2024/01/25 10:27:42;;;;;;;;;;;9.40;99.90;;;;;;5106797;28;20069;-76
2024/01/25 10:30:09;;;;;;;;;;;9.60;99.90;;;;;;5112869;28;19904;-75
2024/01/25 10:32:35;;;;;;;;;;;9.50;99.90;;;;;;5107273;28;19919;-75
2024/01/25 10:35:01;;;;;;;;;;;9.60;99.90;;;;;;5106597;28;19907;-75
2024/01/25 10:37:27;;;;;;;;;;;9.80;99.90;;;;;;5114334;28;19908;-76
2024/01/25 10:39:54;;;;;;;;;;;9.90;99.90;;;;;;5108275;28;19988;-76
2024/01/25 10:42:20;;;;;;;;;;;10.10;99.90;;;;;;5110303;28;20318;-76
2024/01/25 10:44:46;;;;;;;;;;;10.20;99.90;;;;;;5105601;28;19915;-76
2024/01/25 10:47:11;;;;;;;;;;;10.30;99.90;;;;;;5106645;28;19908;-76
2024/01/25 10:49:37;;;;;;;;;;;10.40;99.90;;;;;;5110072;28;19908;-76
2024/01/25 10:52:04;;;;;;;;;;;10.50;99.90;;;;;;5105564;28;20018;-76
2024/01/25 10:54:30;;;;;;;;;;;10.50;99.90;;;;;;5104094;28;19958;-76
2024/01/25 10:56:58;;;;;;;;;;;10.50;99.90;;;;;;5112477;28;19916;-75
2024/01/25 10:59:25;;;;;;;;;;;10.70;99.90;;;;;;5107064;28;20034;-75
2024/01/25 11:01:50;;;;;;;;;;;10.70;99.90;;;;;;5112239;28;19929;-75
2024/01/25 11:04:16;;;;;;;;;;;10.70;99.90;;;;;;5103170;28;20360;-75
2024/01/25 11:06:43;;;;;;;;;;;10.90;99.90;;;;;;5110408;28;19907;-76
2024/01/25 11:09:08;;;;;;;;;;;11.00;99.90;;;;;;5108681;27;19908;-75
2024/01/25 11:11:35;;;;;;;;;;;11.00;99.90;;;;;;5114174;28;19908;-75
2024/01/25 11:14:01;;;;;;;;;;;11.10;99.90;;;;;;5108140;28;20353;-75
2024/01/25 11:16:31;;;;;;;;;;;11.00;99.90;;;;;;5111772;28;19981;-75
2024/01/25 11:19:07;;;;;;;;;;;11.00;99.90;;;;;;5110945;28;19987;-75
2024/01/25 11:21:45;;;;;;;;;;;11.00;99.90;;;;;;5108114;28;19968;-76
2024/01/25 11:24:14;;;;;;;;;;;10.90;99.90;;;;;;5108528;28;19933;-76
2024/01/25 11:26:40;;;;;;;;;;;10.80;99.90;;;;;;5106123;28;19961;-76
2024/01/25 11:29:06;;;;;;;;;;;10.70;99.90;;;;;;5106035;28;19919;-76
2024/01/25 11:31:31;;;;;;;;;;;10.50;99.90;;;;;;5110509;28;19908;-76
2024/01/25 11:33:58;;;;;;;;;;;10.40;99.90;;;;;;5108393;28;19904;-76
2024/01/25 11:36:24;;;;;;;;;;;10.40;99.90;;;;;;5107486;27;19911;-76
2024/01/25 11:38:49;;;;;;;;;;;10.30;99.90;;;;;;5106649;27;19916;-76
2024/01/25 11:41:15;;;;;;;;;;;10.20;99.90;;;;;;5107980;27;19957;-76
2024/01/25 11:43:41;;;;;;;;;;;10.20;99.90;;;;;;5111675;28;20488;-76
2024/01/25 11:46:06;;;;;;;;;;;10.30;99.90;;;;;;5110479;27;19929;-77
2024/01/25 11:48:32;;;;;;;;;;;10.30;99.90;;;;;;5112107;28;19910;-76
2024/01/25 11:51:00;;;;;;;;;;;10.40;99.90;;;;;;5104408;28;20456;-76
2024/01/25 11:53:26;;;;;;;;;;;10.40;99.90;;;;;;5110058;28;19929;-76
2024/01/25 11:55:54;;;;;;;;;;;10.50;99.90;;;;;;5109994;28;19928;-76
2024/01/25 11:58:20;;;;;;;;;;;10.50;99.90;;;;;;5109790;28;19911;-76
2024/01/25 12:00:46;;;;;;;;;;;10.50;99.90;;;;;;5108704;28;19914;-76
2024/01/25 12:03:11;;;;;;;;;;;10.50;99.90;;;;;;5111187;28;19903;-77
2024/01/25 12:05:37;;;;;;;;;;;10.50;99.90;;;;;;5109539;28;19951;-76
2024/01/25 12:08:07;;;;;;;;;;;10.60;99.90;;;;;;5105293;28;19914;-76
2024/01/25 12:10:33;;;;;;;;;;;10.60;99.90;;;;;;5106493;28;20079;-76
2024/01/25 12:13:00;;;;;;;;;;;10.60;99.90;;;;;;5110318;28;19908;-76
2024/01/25 12:15:25;;;;;;;;;;;10.70;99.90;;;;;;5108699;28;19908;-77
2024/01/25 12:17:51;;;;;;;;;;;10.70;99.90;;;;;;5109982;28;19908;-76
2024/01/25 12:20:17;;;;;;;;;;;10.70;99.90;;;;;;5104445;28;19911;-76
2024/01/25 12:22:44;;;;;;;;;;;10.80;99.90;;;;;;5109016;28;19988;-76
2024/01/25 12:25:09;;;;;;;;;;;10.90;99.90;;;;;;5106103;28;20370;-76
2024/01/25 12:27:35;;;;;;;;;;;10.90;99.90;;;;;;5110650;28;19914;-76
2024/01/25 12:30:01;;;;;;;;;;;11.00;99.90;;;;;;5107087;28;20391;-77
2024/01/25 12:32:26;;;;;;;;;;;11.10;99.90;;;;;;5112591;28;19947;-76
2024/01/25 12:35:01;;;;;;;;;;;11.10;99.90;;;;;;5109450;28;19973;-76
2024/01/25 12:37:27;;;;;;;;;;;11.20;99.90;;;;;;5109026;28;19911;-76
2024/01/25 12:39:53;;;;;;;;;;;11.20;99.90;;;;;;5107933;28;19911;-76
2024/01/25 12:42:19;;;;;;;;;;;11.30;99.90;;;;;;5106338;28;19911;-76
2024/01/25 12:44:45;;;;;;;;;;;11.40;99.90;;;;;;5107958;27;19914;-76
2024/01/25 12:47:12;;;;;;;;;;;11.40;99.90;;;;;;5108575;28;20117;-76
2024/01/25 12:49:42;;;;;;;;;;;11.50;99.90;;;;;;5108363;27;19982;-76
2024/01/25 12:52:11;;;;;;;;;;;11.50;99.90;;;;;;5111782;28;19914;-76
2024/01/25 12:54:36;;;;;;;;;;;11.50;99.90;;;;;;5105606;28;19911;-76
2024/01/25 12:57:02;;;;;;;;;;;11.60;99.90;;;;;;5104001;28;20375;-76
2024/01/25 12:59:28;;;;;;;;;;;11.70;99.90;;;;;;5112051;28;19912;-76
2024/01/25 13:01:53;;;;;;;;;;;11.80;99.90;;;;;;5107083;28;19907;-76
2024/01/25 13:04:20;;;;;;;;;;;11.80;99.90;;;;;;5112847;28;19945;-76
2024/01/25 13:06:46;;;;;;;;;;;11.90;99.90;;;;;;5098413;28;19918;-77
2024/01/25 13:09:12;;;;;;;;;;;12.00;99.90;;;;;;5091567;28;20002;-76
2024/01/25 13:11:37;;;;;;;;;;;12.10;99.90;;;;;;5104527;28;20335;-76
2024/01/25 13:14:03;;;;;;;;;;;12.20;99.90;;;;;;5107970;28;19968;-76
2024/01/25 13:16:28;;;;;;;;;;;12.20;99.90;;;;;;5101824;28;19908;-77
2024/01/25 13:18:54;;;;;;;;;;;12.20;99.90;;;;;;5092642;28;19919;-76
2024/01/25 13:21:19;;;;;;;;;;;12.40;99.90;;;;;;5105241;28;19914;-76
2024/01/25 13:23:45;;;;;;;;;;;12.40;99.90;;;;;;5101217;28;19991;-77
2024/01/25 13:26:10;;;;;;;;;;;12.50;99.90;;;;;;5103542;28;19936;-76
2024/01/25 13:28:36;;;;;;;;;;;12.60;99.90;;;;;;5102845;28;20006;-76
2024/01/25 13:31:02;;;;;;;;;;;12.60;99.90;;;;;;5105790;28;19958;-76
2024/01/25 13:33:27;;;;;;;;;;;12.60;99.90;;;;;;5111705;28;19995;-77
2024/01/25 13:35:53;;;;;;;;;;;12.70;99.90;;;;;;5112710;28;20002;-76
2024/01/25 13:38:18;;;;;;;;;;;12.70;99.90;;;;;;5112914;28;19998;-77
2024/01/25 13:40:44;;;;;;;;;;;12.80;99.90;;;;;;5109581;28;20010;-76
2024/01/25 13:43:09;;;;;;;;;;;12.90;99.90;;;;;;5112437;28;20002;-76
2024/01/25 13:45:35;;;;;;;;;;;12.90;99.90;;;;;;5111059;28;19908;-76
2024/01/25 13:48:00;;;;;;;;;;;12.90;99.90;;;;;;5097459;28;20269;-76
2024/01/25 13:50:26;;;;;;;;;;;13.00;99.90;;;;;;5096464;27;20340;-76
2024/01/25 13:52:51;;;;;;;;;;;13.00;99.90;;;;;;5097944;28;20366;-77
2024/01/25 13:55:17;;;;;;;;;;;13.10;99.90;;;;;;5098500;28;20338;-77
2024/01/25 13:57:43;;;;;;;;;;;13.10;99.90;;;;;;5098976;28;19950;-77
2024/01/25 14:00:08;;;;;;;;;;;13.20;99.90;;;;;;5110692;28;19934;-77
2024/01/25 14:02:34;;;;;;;;;;;13.30;99.90;;;;;;5111545;28;19950;-76
2024/01/25 14:05:00;;;;;;;;;;;13.30;99.90;;;;;;5112134;28;20002;-76
2024/01/25 14:07:25;;;;;;;;;;;13.40;99.90;;;;;;5111890;28;19907;-76
2024/01/25 14:09:52;;;;;;;;;;;13.40;99.90;;;;;;5107711;28;19943;-76
2024/01/25 14:12:17;;;;;;;;;;;13.40;99.90;;;;;;5110366;28;19914;-76
2024/01/25 14:14:43;;;;;;;;;;;13.40;99.90;;;;;;5108004;28;19908;-77
2024/01/25 14:17:08;;;;;;;;;;;13.40;99.90;;;;;;5110458;28;19923;-76